Washington, New Hampshire
Current Conditions -  °F | °C
As of 9:35 AM on Friday 28 Nov 2014 (Local Time) from KEEN Reporting Station
Broken Clouds Broken Clouds  
Wind Chill: 27°   Ceiling: 3700
Heat Index: 27°   Visibility: 10mi
Dew Point: 21°   Wind: 0mph
Humidity: 80%   Direction: NA
Pressure: 30.08"   Gusts: NA
Location:  43.18°N, 72.1°W
Report Text: KEEN 281435Z AUTO 00000KT 10SM BKN037 M03/M06 A3008 RMK AO1
Loading
Personal Weather Stations






























Interactive Weather Map New forecast layout! Learn more

10-Day Weather Forecast

Advertisements
Track Severe Weather on mobile